Time;durP1;ratioP1;P1;durP2;ratioP2;P2;SDS_P1;SDS_P2;PMS_P1;PMS_P2;Temp;Humidity;BMP_temperature;BMP_pressure;BME280_temperature;BME280_humidity;BME280_pressure;Samples;Min_cycle;Max_cycle;Signal;HPM_P1;HPM_P2
2021/11/06 00:02:05;;;;;;;4.70;1.47;;;9.30;99.90;;;;;;5059356;28;20179;-50
2021/11/06 00:04:33;;;;;;;4.07;1.47;;;9.20;99.90;;;;;;5058485;28;20231;-52
2021/11/06 00:07:00;;;;;;;2.93;1.50;;;9.30;99.90;;;;;;5060179;28;20230;-52
2021/11/06 00:09:26;;;;;;;4.93;1.50;;;9.30;99.90;;;;;;5063554;28;20221;-50
2021/11/06 00:11:53;;;;;;;6.10;1.40;;;9.30;99.90;;;;;;5047318;28;20225;-47
2021/11/06 00:14:19;;;;;;;8.90;1.33;;;9.30;99.90;;;;;;5061752;28;20221;-49
2021/11/06 00:16:46;;;;;;;9.57;1.33;;;9.30;99.90;;;;;;5062747;28;20195;-52
2021/11/06 00:19:13;;;;;;;5.07;1.17;;;9.30;99.90;;;;;;5060712;28;20209;-51
2021/11/06 00:21:41;;;;;;;3.63;1.37;;;9.30;99.90;;;;;;5058240;28;20706;-48
2021/11/06 00:24:07;;;;;;;5.97;1.20;;;9.30;99.90;;;;;;5059309;28;20218;-49
2021/11/06 00:26:34;;;;;;;7.57;1.43;;;9.20;99.90;;;;;;5063322;28;20203;-48
2021/11/06 00:29:00;;;;;;;3.40;0.90;;;9.30;99.90;;;;;;5045524;28;20214;-51
2021/11/06 00:31:27;;;;;;;3.70;1.27;;;9.20;99.90;;;;;;5062658;28;20704;-49
2021/11/06 00:33:54;;;;;;;4.50;1.27;;;9.20;99.90;;;;;;5060415;28;20222;-50
2021/11/06 00:36:20;;;;;;;3.07;1.03;;;9.20;99.90;;;;;;5057021;28;20218;-46
2021/11/06 00:38:48;;;;;;;4.40;1.20;;;9.20;99.90;;;;;;5055817;28;20206;-49
2021/11/06 00:41:15;;;;;;;5.83;1.53;;;9.20;99.90;;;;;;5054276;28;20201;-46
2021/11/06 00:43:42;;;;;;;4.43;0.90;;;9.20;99.90;;;;;;5045309;28;20206;-47
2021/11/06 00:46:08;;;;;;;4.40;1.20;;;9.30;99.90;;;;;;5059393;28;20215;-49
2021/11/06 00:48:35;;;;;;;4.00;1.30;;;9.30;99.90;;;;;;5063132;28;20686;-52
2021/11/06 00:51:02;;;;;;;6.80;1.47;;;9.30;99.90;;;;;;5054292;28;20281;-58
2021/11/06 00:53:28;;;;;;;7.03;1.90;;;9.30;99.90;;;;;;5062732;28;20226;-58
2021/11/06 00:55:56;;;;;;;5.73;1.43;;;9.30;99.90;;;;;;5060324;28;20214;-58
2021/11/06 00:58:23;;;;;;;4.70;0.93;;;9.30;99.90;;;;;;5048033;28;20238;-58
2021/11/06 01:00:49;;;;;;;4.27;1.40;;;9.30;99.90;;;;;;5060814;28;20203;-58
2021/11/06 01:03:16;;;;;;;7.83;1.43;;;9.30;99.90;;;;;;5060452;28;20271;-58
2021/11/06 01:05:43;;;;;;;2.20;1.10;;;9.20;99.90;;;;;;5062681;28;20230;-58
2021/11/06 01:08:10;;;;;;;6.67;1.37;;;9.20;99.90;;;;;;5054558;28;20307;-58
2021/11/06 01:10:37;;;;;;;3.30;0.90;;;9.20;99.90;;;;;;5062945;28;20399;-58
2021/11/06 01:13:05;;;;;;;6.80;1.43;;;9.20;99.90;;;;;;5058560;28;20222;-58
2021/11/06 01:15:32;;;;;;;7.47;1.63;;;9.20;99.90;;;;;;5048276;28;20222;-58
2021/11/06 01:17:59;;;;;;;3.50;1.13;;;9.20;99.90;;;;;;5059498;28;20198;-58
2021/11/06 01:20:26;;;;;;;7.17;1.40;;;9.20;99.90;;;;;;5061450;28;20198;-58
2021/11/06 01:22:53;;;;;;;6.47;1.40;;;9.10;99.90;;;;;;5055079;28;20248;-58
2021/11/06 01:25:20;;;;;;;5.57;1.10;;;9.10;99.90;;;;;;5059781;28;20222;-58
2021/11/06 01:27:48;;;;;;;4.07;1.43;;;9.10;99.90;;;;;;5062924;28;20195;-58
2021/11/06 01:30:17;;;;;;;6.17;1.50;;;9.10;99.90;;;;;;5050098;28;20202;-58
2021/11/06 01:32:45;;;;;;;3.20;1.47;;;9.10;99.90;;;;;;5065492;28;20214;-59
2021/11/06 01:35:13;;;;;;;5.53;1.70;;;9.10;99.90;;;;;;5063585;28;20210;-58
2021/11/06 01:37:40;;;;;;;2.97;1.07;;;9.10;99.90;;;;;;5066563;28;20203;-58
2021/11/06 01:40:09;;;;;;;6.07;1.33;;;9.10;99.90;;;;;;5057719;28;20800;-58
2021/11/06 01:42:36;;;;;;;4.73;1.27;;;9.10;99.90;;;;;;5066075;28;20199;-58
2021/11/06 01:45:04;;;;;;;8.00;1.30;;;9.10;99.90;;;;;;5048377;28;20977;-59
2021/11/06 01:47:32;;;;;;;3.67;1.33;;;9.10;99.90;;;;;;5066072;28;20202;-58
2021/11/06 01:49:58;;;;;;;8.63;1.23;;;9.10;99.90;;;;;;5062960;28;20202;-58
2021/11/06 01:52:25;;;;;;;4.17;1.10;;;9.00;99.90;;;;;;5065646;28;20305;-58
2021/11/06 01:54:52;;;;;;;3.57;1.10;;;9.00;99.90;;;;;;5059246;28;20222;-58
2021/11/06 01:57:19;;;;;;;3.33;1.17;;;9.00;99.90;;;;;;5064528;28;20197;-58
2021/11/06 01:59:47;;;;;;;5.37;1.37;;;9.00;99.90;;;;;;5065605;28;20207;-58
2021/11/06 02:02:14;;;;;;;4.50;1.43;;;9.00;99.90;;;;;;5048937;28;20210;-58
2021/11/06 02:04:42;;;;;;;5.03;1.40;;;9.00;99.90;;;;;;5065559;28;20215;-58
2021/11/06 02:07:08;;;;;;;3.87;1.47;;;9.00;99.90;;;;;;5062404;28;20198;-58
2021/11/06 02:09:35;;;;;;;2.17;1.10;;;9.00;99.90;;;;;;5066158;28;20199;-58
2021/11/06 02:12:02;;;;;;;3.57;1.27;;;9.00;99.90;;;;;;5056555;28;20199;-58
2021/11/06 02:14:29;;;;;;;6.57;1.80;;;9.00;99.90;;;;;;5065792;28;20230;-58
2021/11/06 02:16:55;;;;;;;3.60;1.50;;;9.00;99.90;;;;;;5052735;28;20209;-58
2021/11/06 02:19:27;;;;;;;2.77;1.40;;;9.00;99.90;;;;;;5061419;28;20195;-58
2021/11/06 02:21:55;;;;;;;5.80;1.80;;;9.00;99.90;;;;;;5063111;28;20692;-58
2021/11/06 02:24:23;;;;;;;4.23;1.53;;;9.00;99.90;;;;;;5064410;28;20284;-58
2021/11/06 02:26:49;;;;;;;4.27;1.30;;;9.00;99.90;;;;;;5059191;28;20199;-58
2021/11/06 02:29:17;;;;;;;2.80;1.20;;;9.00;99.90;;;;;;5063413;28;20191;-58
2021/11/06 02:31:44;;;;;;;2.33;1.23;;;9.00;99.90;;;;;;5054620;28;20198;-58
2021/11/06 02:34:12;;;;;;;3.00;1.20;;;9.00;99.90;;;;;;5051771;28;20207;-58
2021/11/06 02:36:39;;;;;;;5.23;1.30;;;9.00;99.90;;;;;;5062017;28;20183;-57
2021/11/06 02:39:08;;;;;;;3.97;1.20;;;9.00;99.90;;;;;;5064153;28;20198;-58
2021/11/06 02:41:35;;;;;;;3.43;1.33;;;8.90;99.90;;;;;;5056103;28;20205;-58
2021/11/06 02:44:07;;;;;;;5.40;1.40;;;8.90;99.90;;;;;;5065214;28;20198;-58
2021/11/06 02:46:35;;;;;;;3.53;1.30;;;9.00;99.90;;;;;;5054808;28;20244;-58
2021/11/06 02:49:02;;;;;;;6.80;1.53;;;9.00;99.90;;;;;;5046510;28;20662;-59
2021/11/06 02:51:29;;;;;;;2.37;1.30;;;9.00;99.90;;;;;;5057360;28;20199;-58
2021/11/06 02:53:55;;;;;;;8.33;2.00;;;9.00;99.90;;;;;;5064914;28;20222;-58
2021/11/06 02:56:25;;;;;;;3.37;1.50;;;8.90;99.90;;;;;;5063084;28;20671;-57
2021/11/06 02:58:53;;;;;;;5.83;1.40;;;8.90;99.90;;;;;;5053036;28;20214;-58
2021/11/06 03:01:20;;;;;;;5.23;1.13;;;9.00;99.90;;;;;;5056704;28;20203;-58
2021/11/06 03:03:47;;;;;;;5.07;2.00;;;9.00;99.90;;;;;;5047336;28;20970;-59
2021/11/06 03:06:13;;;;;;;5.17;1.80;;;8.90;99.90;;;;;;5058457;28;20572;-58
2021/11/06 03:08:40;;;;;;;6.30;1.60;;;8.90;99.90;;;;;;5061911;28;20467;-59
2021/11/06 03:11:07;;;;;;;2.63;1.20;;;8.90;99.90;;;;;;5064800;28;20202;-58
2021/11/06 03:13:37;;;;;;;2.23;1.30;;;8.90;99.90;;;;;;5055450;28;20226;-58
2021/11/06 03:16:07;;;;;;;1.77;1.40;;;8.90;99.90;;;;;;5064669;28;20223;-59
2021/11/06 03:18:34;;;;;;;4.60;1.90;;;8.90;99.90;;;;;;5046306;28;22265;-52
2021/11/06 03:21:00;;;;;;;2.57;1.37;;;8.80;99.90;;;;;;5064661;28;20266;-52
2021/11/06 03:23:28;;;;;;;4.80;1.53;;;8.80;99.90;;;;;;5057188;28;20738;-53
2021/11/06 03:25:55;;;;;;;6.27;1.60;;;8.80;99.90;;;;;;5064433;28;20272;-47
2021/11/06 03:28:21;;;;;;;4.13;1.60;;;8.80;99.90;;;;;;5054043;28;20206;-50
2021/11/06 03:30:50;;;;;;;8.37;1.80;;;8.70;99.90;;;;;;5060252;28;20205;-47
2021/11/06 03:33:17;;;;;;;3.10;1.63;;;8.70;99.90;;;;;;5057374;28;20206;-52
2021/11/06 03:35:44;;;;;;;5.30;2.00;;;8.70;99.90;;;;;;5040884;28;20221;-46
2021/11/06 03:38:10;;;;;;;3.70;1.87;;;8.70;99.90;;;;;;5064019;28;20195;-46
2021/11/06 03:40:37;;;;;;;3.37;1.40;;;8.70;99.90;;;;;;5060437;28;20206;-50
2021/11/06 03:43:04;;;;;;;8.33;1.90;;;8.70;99.90;;;;;;5064129;28;20232;-50
2021/11/06 03:45:31;;;;;;;5.70;2.50;;;8.70;99.90;;;;;;5055287;28;20229;-51
2021/11/06 03:47:59;;;;;;;3.63;1.90;;;8.70;99.90;;;;;;5064182;28;20210;-49
2021/11/06 03:50:26;;;;;;;3.87;2.03;;;8.70;99.90;;;;;;5048997;28;20567;-52
2021/11/06 03:52:53;;;;;;;6.60;2.10;;;8.70;99.90;;;;;;5060587;28;20195;-50
2021/11/06 03:55:19;;;;;;;4.80;1.97;;;8.70;99.90;;;;;;5062081;28;20725;-49
2021/11/06 03:57:46;;;;;;;7.67;2.37;;;8.70;99.90;;;;;;5061947;28;20190;-52
2021/11/06 04:00:15;;;;;;;6.00;2.27;;;8.70;99.90;;;;;;5058393;28;20203;-50
2021/11/06 04:02:42;;;;;;;7.53;2.40;;;8.70;99.90;;;;;;5060695;28;20194;-52
2021/11/06 04:05:11;;;;;;;4.67;2.13;;;8.70;99.90;;;;;;5063664;28;20222;-47
2021/11/06 04:07:38;;;;;;;4.20;1.80;;;8.70;99.90;;;;;;5045750;28;20206;-51
2021/11/06 04:10:06;;;;;;;9.47;1.93;;;8.70;99.90;;;;;;5063502;28;20198;-47
2021/11/06 04:12:33;;;;;;;4.73;2.00;;;8.70;99.90;;;;;;5059380;28;20195;-50
2021/11/06 04:15:00;;;;;;;4.13;1.50;;;8.70;99.90;;;;;;5063714;28;20693;-52
2021/11/06 04:17:26;;;;;;;3.50;1.60;;;8.60;99.90;;;;;;5055250;28;20209;-49
2021/11/06 04:19:53;;;;;;;5.10;2.87;;;8.60;99.90;;;;;;5063038;28;20206;-51
2021/11/06 04:22:21;;;;;;;6.73;2.40;;;8.60;99.90;;;;;;5054823;28;20199;-52
2021/11/06 04:24:48;;;;;;;2.83;2.40;;;8.60;99.90;;;;;;5055799;28;20226;-48
2021/11/06 04:27:14;;;;;;;6.10;2.40;;;8.60;99.90;;;;;;5062438;28;20198;-50
2021/11/06 04:29:42;;;;;;;6.00;2.23;;;8.60;99.90;;;;;;5060795;28;20206;-50
2021/11/06 04:32:09;;;;;;;7.33;2.33;;;8.60;99.90;;;;;;5058141;28;20212;-51
2021/11/06 04:34:35;;;;;;;7.20;2.33;;;8.60;99.90;;;;;;5058897;28;20214;-49
2021/11/06 04:37:02;;;;;;;3.90;2.27;;;8.60;99.90;;;;;;5063474;28;20689;-52
2021/11/06 04:39:30;;;;;;;9.53;2.90;;;8.60;99.90;;;;;;5043019;28;20206;-49
2021/11/06 04:41:57;;;;;;;6.37;2.87;;;8.60;99.90;;;;;;5062151;28;20281;-48
2021/11/06 04:44:24;;;;;;;4.83;2.40;;;8.60;99.90;;;;;;5060537;28;20225;-48
2021/11/06 04:46:51;;;;;;;5.13;2.60;;;8.60;99.90;;;;;;5057445;28;22505;-49
2021/11/06 04:49:17;;;;;;;4.50;2.63;;;8.60;99.90;;;;;;5061677;28;20198;-49
2021/11/06 04:51:44;;;;;;;8.20;3.10;;;8.70;99.90;;;;;;5060698;28;20944;-51
2021/11/06 04:54:11;;;;;;;4.53;2.83;;;8.70;99.90;;;;;;5062737;28;20218;-51
2021/11/06 04:56:39;;;;;;;4.47;2.87;;;8.70;99.90;;;;;;5046338;28;20309;-51
2021/11/06 04:59:06;;;;;;;6.60;2.80;;;8.70;99.90;;;;;;5063325;28;20540;-48
2021/11/06 05:01:32;;;;;;;4.43;3.50;;;8.60;99.90;;;;;;5055296;28;20198;-46
2021/11/06 05:03:59;;;;;;;8.20;3.17;;;8.60;99.90;;;;;;5054819;28;20198;-47
2021/11/06 05:06:27;;;;;;;3.57;3.07;;;8.60;99.90;;;;;;5059588;28;20198;-53
2021/11/06 05:08:54;;;;;;;4.80;3.43;;;8.70;99.90;;;;;;5052354;28;20234;-48
2021/11/06 05:11:20;;;;;;;7.93;4.17;;;8.60;99.90;;;;;;5045538;28;20210;-51
2021/11/06 05:13:48;;;;;;;5.37;3.67;;;8.70;99.90;;;;;;5057420;28;20939;-48
2021/11/06 05:16:15;;;;;;;5.53;4.67;;;8.60;99.90;;;;;;5055030;28;20218;-51
2021/11/06 05:18:42;;;;;;;7.27;4.30;;;8.70;99.90;;;;;;5052023;28;20214;-47
2021/11/06 05:21:09;;;;;;;7.27;4.10;;;8.70;99.90;;;;;;5055777;28;20292;-51
2021/11/06 05:23:36;;;;;;;9.03;4.77;;;8.70;99.90;;;;;;5055444;28;20229;-47
2021/11/06 05:26:03;;;;;;;7.97;4.33;;;8.70;99.90;;;;;;5052410;28;20226;-50
2021/11/06 05:28:30;;;;;;;11.37;4.43;;;8.70;99.90;;;;;;5057503;28;20203;-53
2021/11/06 05:30:58;;;;;;;9.43;4.40;;;8.70;99.90;;;;;;5059792;28;20202;-51
2021/11/06 05:33:24;;;;;;;9.87;4.60;;;8.70;99.90;;;;;;5054635;28;20204;-48
2021/11/06 05:35:51;;;;;;;9.00;4.60;;;8.60;99.90;;;;;;5063081;28;20586;-51
2021/11/06 05:38:17;;;;;;;7.83;4.83;;;8.70;99.90;;;;;;5052212;28;20214;-46
2021/11/06 05:40:44;;;;;;;12.33;5.60;;;8.60;99.90;;;;;;5062455;28;20214;-50
2021/11/06 05:43:10;;;;;;;6.77;4.97;;;8.60;99.90;;;;;;5046666;28;20202;-48
2021/11/06 05:45:37;;;;;;;6.87;4.97;;;8.60;99.90;;;;;;5062354;28;20703;-52
2021/11/06 05:48:05;;;;;;;8.67;5.97;;;8.60;99.90;;;;;;5060377;28;20579;-49
2021/11/06 05:50:32;;;;;;;8.63;5.77;;;8.60;99.90;;;;;;5054142;28;20213;-50
2021/11/06 05:52:59;;;;;;;9.40;5.73;;;8.60;99.90;;;;;;5060810;28;20210;-52
2021/11/06 05:55:25;;;;;;;7.63;5.10;;;8.60;99.90;;;;;;5051453;28;20828;-48
2021/11/06 05:57:52;;;;;;;6.23;5.43;;;8.60;99.90;;;;;;5043816;28;20203;-52
2021/11/06 06:00:20;;;;;;;7.83;5.40;;;8.60;99.90;;;;;;5050857;28;20205;-51
2021/11/06 06:02:48;;;;;;;7.00;5.00;;;8.60;99.90;;;;;;5059046;28;20205;-48
2021/11/06 06:05:16;;;;;;;8.10;5.13;;;8.60;99.90;;;;;;5047762;28;20315;-52
2021/11/06 06:07:43;;;;;;;9.43;5.63;;;8.50;99.90;;;;;;5062125;28;20226;-51
2021/11/06 06:10:12;;;;;;;9.17;6.17;;;8.50;99.90;;;;;;5053791;28;20202;-49
2021/11/06 06:12:39;;;;;;;12.50;6.10;;;8.60;99.90;;;;;;5047724;28;20207;-51
2021/11/06 06:15:07;;;;;;;9.63;5.33;;;8.60;99.90;;;;;;5062485;28;20581;-51
2021/11/06 06:17:36;;;;;;;7.47;5.60;;;8.60;99.90;;;;;;5064421;28;20191;-48
2021/11/06 06:20:04;;;;;;;9.50;5.97;;;8.60;99.90;;;;;;5063664;28;20230;-51
2021/11/06 06:22:32;;;;;;;8.83;5.80;;;8.60;99.90;;;;;;5056846;28;20203;-49
2021/11/06 06:24:59;;;;;;;6.93;6.23;;;8.60;99.90;;;;;;5061192;28;20222;-49
2021/11/06 06:27:25;;;;;;;8.43;6.03;;;8.50;99.90;;;;;;5056899;28;20966;-50
2021/11/06 06:29:52;;;;;;;6.73;5.43;;;8.60;99.90;;;;;;5047187;28;20199;-53
2021/11/06 06:32:19;;;;;;;7.80;5.80;;;8.60;99.90;;;;;;5058098;28;20194;-50
2021/11/06 06:34:46;;;;;;;8.00;5.47;;;8.60;99.90;;;;;;5063727;28;20226;-51
2021/11/06 06:37:12;;;;;;;9.23;5.50;;;8.60;99.90;;;;;;5056547;28;20894;-51
2021/11/06 06:39:40;;;;;;;11.47;6.37;;;8.60;99.90;;;;;;5062465;28;20210;-51
2021/11/06 06:42:07;;;;;;;6.73;5.80;;;8.60;99.90;;;;;;5057130;28;20226;-51
2021/11/06 06:44:34;;;;;;;9.30;5.73;;;8.60;99.90;;;;;;5049018;28;20588;-46
2021/11/06 06:47:01;;;;;;;7.67;5.63;;;8.60;99.90;;;;;;5063357;28;20198;-51
2021/11/06 06:49:28;;;;;;;6.80;6.10;;;8.60;99.90;;;;;;5063456;28;20202;-48
2021/11/06 06:51:55;;;;;;;11.10;6.40;;;8.60;99.90;;;;;;5062786;28;20199;-51
2021/11/06 06:54:23;;;;;;;9.40;6.43;;;8.60;99.90;;;;;;5056487;28;20211;-51
2021/11/06 06:56:51;;;;;;;8.33;7.03;;;8.60;99.90;;;;;;5064919;28;20233;-46
2021/11/06 06:59:17;;;;;;;8.73;5.70;;;8.60;99.90;;;;;;5042880;28;21116;-48
2021/11/06 07:01:46;;;;;;;8.77;6.30;;;8.60;99.90;;;;;;5066224;28;20217;-51
2021/11/06 07:04:12;;;;;;;8.30;6.80;;;8.60;99.90;;;;;;5059510;28;20199;-49
2021/11/06 07:06:39;;;;;;;12.47;7.30;;;8.60;99.90;;;;;;5061830;28;20285;-54
2021/11/06 07:09:06;;;;;;;10.50;6.53;;;8.60;99.90;;;;;;5055263;28;20207;-54
2021/11/06 07:11:32;;;;;;;10.37;6.93;;;8.70;99.90;;;;;;5055207;28;20210;-54
2021/11/06 07:14:00;;;;;;;10.97;7.30;;;8.70;99.90;;;;;;5056972;28;20203;-51
2021/11/06 07:16:27;;;;;;;8.00;6.77;;;8.70;99.90;;;;;;5047016;28;20753;-53
2021/11/06 07:18:54;;;;;;;14.33;7.97;;;8.70;99.90;;;;;;5057138;28;20187;-49
2021/11/06 07:21:21;;;;;;;13.03;8.03;;;8.70;99.90;;;;;;5069264;28;20249;-53
2021/11/06 07:23:48;;;;;;;11.33;8.70;;;8.80;99.90;;;;;;5051520;28;20209;-53
2021/11/06 07:26:14;;;;;;;11.40;8.47;;;8.70;99.90;;;;;;5060926;28;20817;-53
2021/11/06 07:28:41;;;;;;;12.87;8.50;;;8.80;99.90;;;;;;5054347;28;20202;-50
2021/11/06 07:31:09;;;;;;;14.53;8.53;;;8.80;99.90;;;;;;5049953;28;20679;-50
2021/11/06 07:33:35;;;;;;;13.40;9.10;;;8.80;99.90;;;;;;5058276;28;20199;-50
2021/11/06 07:36:02;;;;;;;16.10;9.13;;;8.80;99.90;;;;;;5051784;28;20222;-46
2021/11/06 07:38:29;;;;;;;11.33;9.63;;;8.90;99.90;;;;;;5058999;28;20191;-47
2021/11/06 07:40:55;;;;;;;12.67;10.17;;;8.90;99.90;;;;;;5061861;28;20655;-47
2021/11/06 07:43:22;;;;;;;14.70;10.40;;;8.90;99.90;;;;;;5056418;28;20203;-50
2021/11/06 07:45:49;;;;;;;17.50;10.30;;;8.90;99.90;;;;;;5058668;28;20724;-50
2021/11/06 07:48:16;;;;;;;16.73;11.10;;;8.90;99.90;;;;;;5049891;28;20209;-50
2021/11/06 07:50:43;;;;;;;16.07;10.13;;;8.90;99.90;;;;;;5063659;28;20195;-51
2021/11/06 07:53:10;;;;;;;12.57;10.37;;;9.00;99.90;;;;;;5060894;28;20203;-53
2021/11/06 07:55:38;;;;;;;15.23;11.20;;;9.00;99.90;;;;;;5058578;28;20645;-53
2021/11/06 07:58:04;;;;;;;20.00;12.17;;;9.00;99.90;;;;;;5056119;28;20551;-50
2021/11/06 08:00:31;;;;;;;19.93;12.57;;;9.00;99.90;;;;;;5054499;28;20327;-52
2021/11/06 08:02:57;;;;;;;19.63;13.20;;;9.00;99.90;;;;;;5049387;28;20203;-53
2021/11/06 08:05:25;;;;;;;17.87;11.93;;;9.00;99.90;;;;;;5052046;28;20238;-46
2021/11/06 08:07:52;;;;;;;20.80;14.00;;;9.10;99.90;;;;;;5065416;28;20218;-48
2021/11/06 08:10:19;;;;;;;18.63;12.87;;;9.10;99.90;;;;;;5056367;28;20878;-48
2021/11/06 08:12:46;;;;;;;22.50;13.63;;;9.00;99.90;;;;;;5059994;28;20339;-46
2021/11/06 08:15:14;;;;;;;19.13;13.83;;;9.10;99.90;;;;;;5055098;28;20271;-50
2021/11/06 08:17:41;;;;;;;17.13;11.83;;;9.10;99.90;;;;;;5049309;28;20198;-52
2021/11/06 08:20:10;;;;;;;19.70;14.57;;;9.10;99.90;;;;;;5051489;28;20206;-49
2021/11/06 08:22:38;;;;;;;21.90;13.70;;;9.20;99.90;;;;;;5053510;28;20256;-53
2021/11/06 08:25:07;;;;;;;19.63;14.73;;;9.10;99.90;;;;;;5063026;28;20281;-49
2021/11/06 08:27:34;;;;;;;19.67;14.63;;;9.20;99.90;;;;;;5054825;28;20211;-52
2021/11/06 08:30:01;;;;;;;18.90;13.87;;;9.20;99.90;;;;;;5062877;28;20598;-49
2021/11/06 08:32:27;;;;;;;22.13;15.10;;;9.20;99.90;;;;;;5050022;28;20213;-48
2021/11/06 08:34:54;;;;;;;21.53;14.93;;;9.20;99.90;;;;;;5052214;28;20218;-48
2021/11/06 08:37:21;;;;;;;19.80;14.57;;;9.20;99.90;;;;;;5059181;28;20194;-53
2021/11/06 08:39:49;;;;;;;22.00;16.70;;;9.30;99.90;;;;;;5058148;28;20210;-49
2021/11/06 08:42:15;;;;;;;23.50;15.90;;;9.30;99.90;;;;;;5062618;28;20207;-50
2021/11/06 08:44:42;;;;;;;24.03;16.43;;;9.30;99.90;;;;;;5046685;28;21057;-49
2021/11/06 08:47:09;;;;;;;22.47;15.97;;;9.30;99.90;;;;;;5063717;28;20284;-51
2021/11/06 08:49:35;;;;;;;25.07;17.30;;;9.30;99.90;;;;;;5042087;28;20210;-52
2021/11/06 08:52:03;;;;;;;21.37;16.67;;;9.30;99.90;;;;;;5057436;28;20698;-49
2021/11/06 08:54:29;;;;;;;26.50;18.50;;;9.30;99.90;;;;;;5059696;28;20221;-50
2021/11/06 08:56:58;;;;;;;21.47;16.43;;;9.30;99.90;;;;;;5069332;28;20205;-47
2021/11/06 08:59:25;;;;;;;30.97;18.10;;;9.30;99.90;;;;;;5055217;28;20202;-53
2021/11/06 09:01:55;;;;;;;27.47;18.30;;;9.40;99.90;;;;;;5061283;28;20205;-49
2021/11/06 09:04:24;;;;;;;26.77;19.23;;;9.40;99.90;;;;;;5047249;28;20223;-53
2021/11/06 09:06:51;;;;;;;25.67;19.07;;;9.40;99.90;;;;;;5050080;28;20210;-53
2021/11/06 09:09:18;;;;;;;22.60;20.17;;;9.40;99.90;;;;;;5067983;28;20207;-53
2021/11/06 09:11:46;;;;;;;26.97;19.33;;;9.50;99.90;;;;;;5051520;28;20282;-47
2021/11/06 09:14:15;;;;;;;25.53;19.10;;;9.50;99.90;;;;;;5057843;28;20281;-50
2021/11/06 09:16:42;;;;;;;27.23;20.43;;;9.50;99.90;;;;;;5059185;28;20218;-49
2021/11/06 09:19:08;;;;;;;26.73;19.73;;;9.50;99.90;;;;;;5056365;28;20199;-49
2021/11/06 09:21:35;;;;;;;31.47;19.60;;;9.50;99.90;;;;;;5036304;28;20233;-53
2021/11/06 09:24:03;;;;;;;29.17;19.90;;;9.50;99.90;;;;;;5047828;28;20562;-49
2021/11/06 09:26:32;;;;;;;27.37;19.43;;;9.50;99.90;;;;;;5059365;28;20194;-49
2021/11/06 09:28:59;;;;;;;29.83;20.90;;;9.50;99.90;;;;;;5068782;28;20198;-49
2021/11/06 09:31:28;;;;;;;25.10;19.70;;;9.60;99.90;;;;;;5051873;28;20655;-52
2021/11/06 09:33:55;;;;;;;26.60;20.20;;;9.50;99.90;;;;;;5052113;28;20213;-50
2021/11/06 09:36:22;;;;;;;27.53;19.60;;;9.60;99.90;;;;;;5042246;28;20217;-53
2021/11/06 09:38:49;;;;;;;27.37;18.80;;;9.60;99.90;;;;;;5057366;28;20199;-51
2021/11/06 09:41:17;;;;;;;26.13;20.83;;;9.60;99.90;;;;;;5060009;28;20194;-55
2021/11/06 09:43:46;;;;;;;30.83;21.00;;;9.70;99.90;;;;;;5061512;28;20954;-53
2021/11/06 09:46:14;;;;;;;28.40;20.13;;;9.70;99.90;;;;;;5055431;28;20652;-54
2021/11/06 09:48:44;;;;;;;27.83;19.97;;;9.70;99.90;;;;;;5055243;28;20203;-48
2021/11/06 09:51:13;;;;;;;27.40;19.70;;;9.70;99.90;;;;;;5066022;28;20209;-52
2021/11/06 09:53:42;;;;;;;26.93;20.27;;;9.80;99.90;;;;;;5044920;28;20217;-54
2021/11/06 09:56:09;;;;;;;28.00;20.80;;;9.80;99.90;;;;;;5069245;28;20221;-51
2021/11/06 09:58:36;;;;;;;24.97;18.70;;;9.80;99.90;;;;;;5059188;28;20195;-53
2021/11/06 10:01:04;;;;;;;26.33;19.50;;;9.80;99.90;;;;;;5065633;28;20198;-52
2021/11/06 10:03:31;;;;;;;29.97;20.63;;;9.80;99.90;;;;;;5062780;28;20206;-52
2021/11/06 10:06:01;;;;;;;28.53;20.30;;;9.80;99.90;;;;;;5060165;28;20245;-51
2021/11/06 10:08:34;;;;;;;29.93;19.90;;;9.90;99.90;;;;;;5046122;28;20238;-54
2021/11/06 10:11:04;;;;;;;23.83;18.10;;;9.90;99.90;;;;;;5067628;28;20228;-55
2021/11/06 10:13:31;;;;;;;22.73;18.87;;;9.90;99.90;;;;;;5061438;28;20207;-52
2021/11/06 10:15:59;;;;;;;23.87;19.80;;;9.90;99.90;;;;;;5072004;28;20233;-51
2021/11/06 10:18:28;;;;;;;29.17;20.33;;;9.90;99.90;;;;;;5064628;28;20593;-54
2021/11/06 10:21:02;;;;;;;29.03;20.50;;;9.90;99.90;;;;;;5060839;28;20209;-54
2021/11/06 10:23:30;;;;;;;25.90;19.67;;;9.90;99.90;;;;;;5047469;28;20210;-55
2021/11/06 10:26:15;;;;;;;24.40;18.70;;;9.90;99.90;;;;;;5061564;28;20602;-53
2021/11/06 10:28:42;;;;;;;23.47;19.67;;;9.90;99.90;;;;;;5060760;28;20983;-53
2021/11/06 10:31:09;;;;;;;31.30;20.50;;;10.00;99.90;;;;;;5067912;28;20206;-54
2021/11/06 10:33:45;;;;;;;27.47;20.03;;;10.10;99.90;;;;;;5070853;28;20877;-54
2021/11/06 10:36:22;;;;;;;26.30;19.87;;;10.00;99.90;;;;;;5051293;28;20225;-54
2021/11/06 10:39:00;;;;;;;25.17;19.77;;;10.10;99.90;;;;;;5044300;28;20205;-54
2021/11/06 10:41:30;;;;;;;29.87;20.00;;;10.00;99.90;;;;;;5058537;28;20203;-54
2021/11/06 10:43:57;;;;;;;24.67;19.20;;;10.10;99.90;;;;;;5068431;28;20194;-53
2021/11/06 10:46:26;;;;;;;26.77;20.03;;;10.10;99.90;;;;;;5066804;28;20218;-53
2021/11/06 10:48:52;;;;;;;25.80;20.20;;;10.10;99.90;;;;;;5067348;28;20190;-54
2021/11/06 10:51:21;;;;;;;23.37;19.47;;;10.10;99.90;;;;;;5062726;28;20678;-54
2021/11/06 10:53:50;;;;;;;25.80;20.23;;;10.10;99.90;;;;;;5049163;28;20226;-51
2021/11/06 10:56:28;;;;;;;24.17;20.00;;;10.10;99.90;;;;;;5056198;28;20687;-54
2021/11/06 10:58:58;;;;;;;24.80;19.60;;;10.10;99.90;;;;;;5070721;28;20230;-48
2021/11/06 11:01:28;;;;;;;26.53;20.70;;;10.10;99.90;;;;;;5060464;28;20217;-45
2021/11/06 11:04:00;;;;;;;27.77;21.47;;;10.10;99.90;;;;;;5064305;28;20195;-44
2021/11/06 11:06:34;;;;;;;27.47;20.73;;;10.10;99.90;;;;;;5050273;28;20199;-43
2021/11/06 11:09:03;;;;;;;28.00;20.33;;;10.10;99.90;;;;;;5048453;28;20633;-43
2021/11/06 11:11:32;;;;;;;28.20;21.23;;;10.10;99.90;;;;;;5054331;28;20207;-43
2021/11/06 11:14:01;;;;;;;27.23;21.13;;;10.10;99.90;;;;;;5064205;28;20222;-45
2021/11/06 11:16:30;;;;;;;25.50;19.83;;;10.10;99.90;;;;;;5044693;28;20225;-45
2021/11/06 11:19:01;;;;;;;27.07;20.23;;;10.10;99.90;;;;;;5052059;28;20207;-48
2021/11/06 11:21:31;;;;;;;30.50;20.47;;;10.10;99.90;;;;;;5055009;28;20570;-47
2021/11/06 11:24:00;;;;;;;24.20;19.00;;;10.10;99.90;;;;;;5052297;28;20690;-46
2021/11/06 11:26:29;;;;;;;24.80;19.23;;;10.10;99.90;;;;;;5048625;28;20679;-45
2021/11/06 11:28:56;;;;;;;27.67;20.00;;;10.10;99.90;;;;;;5052891;28;20209;-46
2021/11/06 11:31:24;;;;;;;26.73;19.20;;;10.10;99.90;;;;;;5053840;28;20213;-46
2021/11/06 11:33:52;;;;;;;26.63;19.90;;;10.10;99.90;;;;;;5062685;28;20886;-47
2021/11/06 11:36:21;;;;;;;26.33;20.23;;;10.10;99.90;;;;;;5055910;28;20218;-49
2021/11/06 11:38:49;;;;;;;25.90;20.27;;;10.10;99.90;;;;;;5058881;28;20209;-46
2021/11/06 11:41:50;;;;;;;27.20;19.70;;;10.10;99.90;;;;;;5051995;28;20213;-45
2021/11/06 11:44:46;;;;;;;28.07;20.87;;;10.10;99.90;;;;;;5058812;28;20221;-46
2021/11/06 11:47:20;;;;;;;28.00;19.90;;;10.10;99.90;;;;;;5063628;28;20757;-47
2021/11/06 11:49:52;;;;;;;22.70;17.93;;;10.10;99.90;;;;;;5056440;28;20191;-45
2021/11/06 11:52:23;;;;;;;30.80;19.60;;;10.10;99.90;;;;;;5059273;28;20206;-46
2021/11/06 11:54:56;;;;;;;29.57;19.80;;;10.10;99.90;;;;;;5050788;28;20981;-44
2021/11/06 11:57:23;;;;;;;26.53;19.37;;;10.10;99.90;;;;;;5045861;28;20234;-44
2021/11/06 11:59:49;;;;;;;28.23;19.70;;;10.10;99.90;;;;;;5049186;28;20194;-48
2021/11/06 12:02:21;;;;;;;24.60;17.90;;;10.10;99.90;;;;;;5060682;28;20203;-44
2021/11/06 12:04:49;;;;;;;27.30;19.93;;;10.10;99.90;;;;;;5054248;28;20214;-45
2021/11/06 12:07:23;;;;;;;29.17;20.87;;;10.10;99.90;;;;;;5057181;28;20199;-45
2021/11/06 12:09:50;;;;;;;26.97;20.00;;;10.10;99.90;;;;;;5053938;28;20209;-42
2021/11/06 12:12:38;;;;;;;29.60;20.87;;;10.10;99.90;;;;;;5053855;28;20301;-43
2021/11/06 12:15:05;;;;;;;31.77;20.33;;;10.10;99.90;;;;;;5053169;28;20221;-44
2021/11/06 12:17:33;;;;;;;26.70;19.37;;;10.20;99.90;;;;;;5060896;28;20710;-46
2021/11/06 12:20:00;;;;;;;25.20;19.53;;;10.20;99.90;;;;;;5059946;28;20217;-46
2021/11/06 12:22:30;;;;;;;26.13;18.43;;;10.20;99.90;;;;;;5055086;28;20214;-48
2021/11/06 12:25:14;;;;;;;24.67;18.27;;;10.20;99.90;;;;;;5061130;28;20234;-42
2021/11/06 12:27:50;;;;;;;27.43;17.63;;;10.20;99.90;;;;;;5039496;28;20206;-44
2021/11/06 12:30:24;;;;;;;23.57;18.67;;;10.20;99.90;;;;;;5054990;28;20217;-44
2021/11/06 12:32:51;;;;;;;24.97;18.60;;;10.20;99.90;;;;;;5061852;28;20199;-42
2021/11/06 12:35:21;;;;;;;24.33;18.43;;;10.20;99.90;;;;;;5060558;28;20272;-46
2021/11/06 12:37:51;;;;;;;23.27;17.87;;;10.30;99.90;;;;;;5050898;28;20567;-46
2021/11/06 12:40:24;;;;;;;23.90;18.70;;;10.30;99.90;;;;;;5066436;28;20293;-48
2021/11/06 12:43:18;;;;;;;28.00;18.20;;;10.30;99.90;;;;;;5043486;28;20226;-44
2021/11/06 12:45:47;;;;;;;21.20;16.73;;;10.30;99.90;;;;;;5043156;28;20241;-45
2021/11/06 12:48:17;;;;;;;26.90;18.27;;;10.30;99.90;;;;;;5050373;28;20863;-45
2021/11/06 12:50:47;;;;;;;26.43;17.43;;;10.30;99.90;;;;;;5062987;28;20206;-46